Forside
METAR-TAF:

METAR-TAF

Lufthavne :

Boscobel Airport

Boscobel, Wisconsin, USA

Breddekreds: 43-09-22N, længdekreds: 090-40-39W, højde: 205 m

Aktuelle vejr

Denne rapport blev lavet for 14 timer og 0 minutter siden, kl. 21:53 UTC
Vind stille
Temperatur 5°C
Fugtighed 48%
Tryk 1025 hPa
Sigt: 16.1 km
skyfri

METAR: KOVS 232153Z AUTO 00000KT 10SM CLR 05/M05 A3028 RMK AO2 SLP260 T00501050

Tid: 05:53 (11:53 UTC)


TAF: fraværende

Vejrobservationer og prognoser fra mere end 4000 lufthavne (METAR og TAF).

De gule og røde prikker repræsenterer de meteorologiske stationer.

Flyt musen over at se navnet på stationen.

Så klik over at se vejr observationer og prognoser.

At skifte det kort: Klik på de grønne knapper med et sort kors for at zoome ind; på den grønne knap med en bindestreg for at zoome ud; eller på de grønne pile for tilstødende kort.


METAR-TAF: